BRW weather

Wiley Post Will Rogers Memorial Airport
Utqiaġvik, Alaska, United States

Public forecast

Using degrees Fahrenheit for public forecast. Weather courtesy of forecast.io.

METAR (pilot weather report)

Retrieved 2019/04/19 17:53 UTC (15 minutes ago):

PABR 191753Z 06008KT 10SM SCT060 BKN080 M14/M16 A2986

TAF (pilot weather forecast)

Retrieved 2019/04/19 18:24 UTC (0 seconds ago):

TAF PABR 191722Z 1918/2018 06008KT P6SM VCSH BKN015 BKN025 OVC035